Terminal Aerodrome Forecast
Issued by NWS

Home | Current Version | Previous Version | Text Only | Print | Product List | Glossary On
Versions: 1 2 3 4 5 6 7 8 9 10 11 12
924
FTUS42 TJSJ 092347
TAFISX
TAF
TISX 092347Z 1000/1024 08007KT P6SM VCSH SCT025 SCT040 SCT060
     FM101300 11014G20KT P6SM SCT021 SCT050
     FM102300 06006KT P6SM FEW030=

USA.gov is the U.S. government's official web portal to all federal, state and local government web resources and services.